Almalyk, Uzbekistan
Current Conditions -  °F | °C
As of 5:30 AM on Saturday 25 Oct 2014 (Local Time) from UTTT Reporting Station
Smoke Smoke  
Wind Chill: 55°   Ceiling: Unl
Heat Index: 55°   Visibility: 2.5mi
Dew Point: 50°   Wind: 2mph
Humidity: 82%   Direction: NA
Pressure: 29.97"   Gusts: NA
Location:  40.84°N, 69.58°E
Report Text: UTTT 250030Z VRB01MPS 4000 BR FU NSC 13/10 Q1015 R08L/CLRD70NOSIG
Loading
Personal Weather Stations






























Interactive Weather Map
Tropical Storm Tracking
New forecast layout! Learn more

10-Day Weather Forecast

Advertisements
Track Severe Weather on mobile